createdAt,value
2022-10-17T00:00:35.435Z,63.35
2022-10-17T00:03:02.432Z,54.42
2022-10-17T00:05:29.414Z,56.13
2022-10-17T00:07:56.186Z,60.67
2022-10-17T00:10:23.612Z,63.53
2022-10-17T00:12:51.763Z,55.60
2022-10-17T00:15:20.267Z,55.70
2022-10-17T00:17:46.988Z,57.22
2022-10-17T00:20:14.362Z,53.97
2022-10-17T00:22:41.108Z,54.97
2022-10-17T00:25:08.626Z,55.65
2022-10-17T00:27:36.621Z,60.75
2022-10-17T00:30:04.402Z,64.43
2022-10-17T00:32:31.369Z,55.88
2022-10-17T00:37:25.399Z,61.90
2022-10-17T00:39:52.149Z,66.38
2022-10-17T00:42:18.890Z,85.78
2022-10-17T00:44:47.593Z,69.75
2022-10-17T00:47:17.908Z,60.88
2022-10-17T00:49:44.625Z,68.68
2022-10-17T00:52:21.207Z,58.22
2022-10-17T00:54:51.728Z,59.42
2022-10-17T00:57:18.600Z,79.00
2022-10-17T00:59:51.526Z,68.15
2022-10-17T01:02:21.517Z,95.35
2022-10-17T01:04:51.885Z,85.43
2022-10-17T01:07:18.780Z,83.82
2022-10-17T01:09:47.109Z,82.78
2022-10-17T01:12:16.606Z,120.18
2022-10-17T01:14:50.304Z,130.75
2022-10-17T01:17:34.777Z,91.15
2022-10-17T01:20:04.268Z,97.93
2022-10-17T01:22:42.063Z,57.78
2022-10-17T01:27:56.800Z,114.88
2022-10-17T01:30:43.113Z,85.88
2022-10-17T01:33:20.607Z,103.63
2022-10-17T01:36:01.847Z,72.95
2022-10-17T01:38:45.085Z,59.08
2022-10-17T01:41:26.799Z,89.43
2022-10-17T01:44:08.955Z,94.30
2022-10-17T01:46:37.251Z,67.93
2022-10-17T01:49:06.937Z,82.20
2022-10-17T01:51:38.916Z,61.38
2022-10-17T01:54:35.402Z,84.18
2022-10-17T01:57:06.457Z,79.88
2022-10-17T01:59:44.302Z,75.20
2022-10-17T02:04:41.332Z,55.00
2022-10-17T02:07:09.626Z,94.75
2022-10-17T02:09:37.179Z,84.60
2022-10-17T02:12:26.947Z,59.13
2022-10-17T02:15:52.878Z,66.70
2022-10-17T02:18:30.888Z,63.97
2022-10-17T02:21:07.011Z,57.17
2022-10-17T02:23:46.283Z,52.88
2022-10-17T02:26:36.728Z,48.85
2022-10-17T02:29:21.370Z,46.92
2022-10-17T02:32:07.206Z,61.05
2022-10-17T02:34:44.960Z,48.15
2022-10-17T02:37:17.146Z,55.65
2022-10-17T02:39:44.748Z,54.90
2022-10-17T02:42:14.144Z,68.10
2022-10-17T02:44:44.639Z,79.75
2022-10-17T02:47:25.392Z,50.55
2022-10-17T02:49:54.904Z,74.30
2022-10-17T02:52:53.165Z,77.95
2022-10-17T02:55:28.990Z,81.55
2022-10-17T02:58:04.438Z,111.32
2022-10-17T03:00:32.805Z,87.38
2022-10-17T03:02:59.532Z,65.45
2022-10-17T03:05:30.085Z,97.85
2022-10-17T03:07:57.245Z,70.70
2022-10-17T03:10:24.934Z,90.65
2022-10-17T03:12:51.649Z,55.55
2022-10-17T03:15:19.053Z,88.82
2022-10-17T03:20:18.660Z,68.45
2022-10-17T03:22:45.705Z,74.95
2022-10-17T03:25:12.439Z,62.22
2022-10-17T03:27:39.307Z,81.82
2022-10-17T03:30:06.878Z,76.07
2022-10-17T03:32:34.925Z,59.67
2022-10-17T03:35:02.116Z,55.85
2022-10-17T03:37:29.391Z,72.63
2022-10-17T03:39:56.453Z,60.47
2022-10-17T03:42:23.711Z,59.40
2022-10-17T03:47:17.315Z,57.15
2022-10-17T03:49:45.105Z,82.28
2022-10-17T03:52:13.124Z,55.08
2022-10-17T03:54:40.729Z,62.80
2022-10-17T03:59:36.188Z,59.05
2022-10-17T04:02:07.910Z,69.18
2022-10-17T04:04:35.521Z,59.22
2022-10-17T04:07:03.397Z,56.40
2022-10-17T04:09:30.523Z,67.10
2022-10-17T04:12:05.918Z,61.15
2022-10-17T04:14:33.945Z,52.50
2022-10-17T04:17:01.802Z,77.97
2022-10-17T04:19:29.413Z,51.53
2022-10-17T04:21:56.383Z,66.25
2022-10-17T04:24:23.192Z,88.65
2022-10-17T04:27:08.239Z,99.10
2022-10-17T04:29:38.439Z,63.83
2022-10-17T04:32:11.036Z,54.47
2022-10-17T04:34:51.414Z,48.40
2022-10-17T04:37:21.145Z,63.72
2022-10-17T04:39:50.061Z,73.20
2022-10-17T04:42:17.014Z,88.85
2022-10-17T04:44:43.731Z,56.40
2022-10-17T04:47:10.741Z,54.80
2022-10-17T04:49:38.939Z,62.13
2022-10-17T04:52:09.416Z,59.40
2022-10-17T04:54:42.400Z,55.03
2022-10-17T04:57:10.455Z,61.42
2022-10-17T04:59:39.337Z,42.80
2022-10-17T05:02:32.501Z,47.75
2022-10-17T05:05:01.551Z,38.45
2022-10-17T05:10:10.608Z,39.03
2022-10-17T05:12:39.119Z,45.67
2022-10-17T05:15:06.549Z,42.28
2022-10-17T05:17:34.467Z,55.40
2022-10-17T05:20:01.168Z,44.85
2022-10-17T05:22:30.633Z,47.97
2022-10-17T05:24:57.978Z,40.92
2022-10-17T05:27:24.893Z,43.38
2022-10-17T05:29:51.628Z,30.02
2022-10-17T05:32:27.239Z,29.85
2022-10-17T05:34:54.181Z,50.53
2022-10-17T05:37:22.923Z,43.97
2022-10-17T05:39:52.094Z,46.65
2022-10-17T05:42:20.007Z,46.60
2022-10-17T05:44:47.434Z,44.58
2022-10-17T05:47:16.360Z,55.17
2022-10-17T05:49:48.616Z,57.85
2022-10-17T05:52:20.459Z,62.03
2022-10-17T05:55:07.569Z,49.50
2022-10-17T05:57:34.498Z,53.30
2022-10-17T06:00:02.340Z,36.88
2022-10-17T06:02:41.011Z,48.00
2022-10-17T06:05:08.991Z,40.85
2022-10-17T06:07:36.140Z,43.70
2022-10-17T06:10:04.168Z,32.80
2022-10-17T06:14:59.228Z,43.85
2022-10-17T06:17:26.672Z,37.13
2022-10-17T06:19:53.450Z,41.15
2022-10-17T06:22:20.175Z,48.33
2022-10-17T06:24:46.880Z,49.60
2022-10-17T06:27:14.576Z,49.63
2022-10-17T06:29:42.160Z,41.15
2022-10-17T06:32:12.616Z,41.60
2022-10-17T06:34:42.822Z,43.70
2022-10-17T06:37:10.612Z,48.05
2022-10-17T06:39:39.470Z,43.50
2022-10-17T06:42:11.451Z,53.00
2022-10-17T06:44:57.720Z,46.15
2022-10-17T06:47:52.696Z,44.28
2022-10-17T06:50:42.451Z,74.78
2022-10-17T06:53:28.611Z,48.20
2022-10-17T06:56:09.799Z,50.75
2022-10-17T06:58:52.961Z,88.53
2022-10-17T07:01:31.857Z,52.70
2022-10-17T07:04:00.593Z,71.00
2022-10-17T07:06:28.913Z,64.57
2022-10-17T07:08:58.947Z,52.30
2022-10-17T07:11:25.894Z,55.88
2022-10-17T07:13:53.748Z,58.38
2022-10-17T07:16:22.468Z,41.75
2022-10-17T07:19:01.106Z,50.38
2022-10-17T07:21:36.596Z,74.20
2022-10-17T07:24:07.561Z,43.30
2022-10-17T07:26:34.643Z,55.65
2022-10-17T07:29:02.431Z,53.17
2022-10-17T07:31:37.295Z,30.50
2022-10-17T07:34:04.635Z,34.42
2022-10-17T07:36:31.425Z,31.27
2022-10-17T07:39:00.275Z,42.05
2022-10-17T07:41:27.885Z,32.22
2022-10-17T07:43:54.633Z,33.80
2022-10-17T07:46:27.248Z,36.03
2022-10-17T07:48:55.510Z,36.78
2022-10-17T07:51:22.710Z,33.97
2022-10-17T07:53:54.906Z,32.17
2022-10-17T07:56:24.694Z,37.38
2022-10-17T07:58:52.958Z,43.17
2022-10-17T08:01:21.863Z,43.60
2022-10-17T08:03:49.180Z,31.65
2022-10-17T08:06:16.055Z,30.88
2022-10-17T08:08:43.545Z,29.75
2022-10-17T08:11:12.433Z,28.25
2022-10-17T08:13:40.540Z,29.60
2022-10-17T08:16:09.626Z,30.98
2022-10-17T08:18:37.050Z,28.10
2022-10-17T08:21:06.416Z,28.75
2022-10-17T08:23:33.139Z,28.42
2022-10-17T08:26:01.041Z,26.42
2022-10-17T08:28:28.359Z,28.25
2022-10-17T08:31:03.253Z,24.73
2022-10-17T08:33:29.939Z,23.45
2022-10-17T08:35:59.045Z,24.27
2022-10-17T08:38:27.911Z,23.88
2022-10-17T08:41:00.085Z,22.60
2022-10-17T08:43:38.114Z,22.58
2022-10-17T08:46:08.210Z,20.48
2022-10-17T08:48:43.968Z,20.50
2022-10-17T08:51:24.641Z,18.73
2022-10-17T08:54:16.892Z,19.70
2022-10-17T08:56:49.766Z,17.90
2022-10-17T08:59:36.892Z,17.90
2022-10-17T09:02:35.795Z,16.42
2022-10-17T09:08:01.323Z,13.63
2022-10-17T09:10:57.112Z,13.30
2022-10-17T09:13:57.365Z,12.98
2022-10-17T09:16:48.753Z,12.60
2022-10-17T09:19:28.539Z,13.25
2022-10-17T09:22:04.166Z,13.88
2022-10-17T09:24:50.497Z,13.55
2022-10-17T09:27:35.444Z,13.35
2022-10-17T09:30:44.191Z,13.60
2022-10-17T09:33:28.288Z,13.73
2022-10-17T09:36:04.898Z,14.88
2022-10-17T09:38:40.347Z,15.30
2022-10-17T09:41:42.999Z,15.38
2022-10-17T09:44:24.759Z,16.90
2022-10-17T09:47:05.833Z,14.65
2022-10-17T09:49:37.643Z,14.90
2022-10-17T09:52:18.392Z,15.27
2022-10-17T09:54:49.297Z,15.40
2022-10-17T09:57:17.970Z,15.80
2022-10-17T10:00:06.260Z,14.80
2022-10-17T10:02:40.897Z,15.35
2022-10-17T10:05:26.006Z,16.80
2022-10-17T10:08:06.997Z,14.20
2022-10-17T10:10:33.945Z,15.18
2022-10-17T10:13:17.841Z,15.98
2022-10-17T10:15:47.403Z,15.35
2022-10-17T10:18:35.878Z,16.45
2022-10-17T10:21:14.621Z,15.80
2022-10-17T10:24:05.726Z,15.52
2022-10-17T10:26:38.593Z,14.65
2022-10-17T10:29:38.336Z,14.38
2022-10-17T10:32:26.747Z,15.88
2022-10-17T10:35:03.757Z,14.15
2022-10-17T10:37:38.501Z,16.10
2022-10-17T10:40:18.979Z,15.55
2022-10-17T10:42:55.061Z,16.45
2022-10-17T10:45:48.956Z,17.35
2022-10-17T10:48:26.615Z,18.58
2022-10-17T10:50:59.021Z,17.00
2022-10-17T10:53:35.341Z,17.17
2022-10-17T10:56:24.458Z,19.58
2022-10-17T10:59:00.676Z,19.55
2022-10-17T11:01:52.731Z,17.33
2022-10-17T11:04:27.356Z,18.00
2022-10-17T11:07:01.054Z,18.40
2022-10-17T11:09:30.081Z,17.90
2022-10-17T11:12:12.085Z,18.08
2022-10-17T11:14:57.320Z,18.60
2022-10-17T11:17:35.531Z,17.33
2022-10-17T11:20:05.143Z,17.52
2022-10-17T11:22:36.556Z,18.15
2022-10-17T11:25:31.054Z,18.30
2022-10-17T11:28:00.975Z,24.33
2022-10-17T11:30:42.376Z,17.48
2022-10-17T11:33:15.897Z,17.35
2022-10-17T11:35:46.239Z,18.02
2022-10-17T11:38:41.975Z,19.05
2022-10-17T11:41:15.521Z,19.25
2022-10-17T11:44:17.418Z,17.58
2022-10-17T11:46:48.393Z,18.30
2022-10-17T11:52:43.895Z,18.70
2022-10-17T11:55:21.621Z,19.13
2022-10-17T11:58:16.220Z,20.23
2022-10-17T12:00:48.983Z,19.40
2022-10-17T12:03:34.731Z,20.08
2022-10-17T12:06:31.752Z,21.70
2022-10-17T12:09:22.861Z,21.77
2022-10-17T12:11:56.458Z,22.75
2022-10-17T12:14:41.433Z,20.67
2022-10-17T12:17:30.613Z,21.98
2022-10-17T12:20:24.346Z,20.52
2022-10-17T12:22:52.505Z,21.25
2022-10-17T12:25:31.536Z,20.88
2022-10-17T12:28:07.252Z,20.20
2022-10-17T12:30:35.053Z,19.92
2022-10-17T12:33:07.844Z,21.10
2022-10-17T12:35:37.803Z,21.02
2022-10-17T12:38:24.813Z,20.60
2022-10-17T12:40:54.290Z,21.55
2022-10-17T12:43:29.970Z,18.95
2022-10-17T12:46:05.808Z,20.85
2022-10-17T12:48:38.571Z,19.08
2022-10-17T12:51:36.306Z,20.33
2022-10-17T12:54:10.643Z,20.58
2022-10-17T12:56:47.776Z,19.38
2022-10-17T12:59:17.298Z,18.98
2022-10-17T13:01:46.519Z,19.40
2022-10-17T13:04:13.748Z,19.23
2022-10-17T13:06:46.940Z,22.00
2022-10-17T13:09:36.101Z,18.48
2022-10-17T13:12:06.410Z,18.95
2022-10-17T13:14:34.279Z,13.05
2022-10-17T13:17:02.072Z,12.45
2022-10-17T13:19:46.963Z,12.18
2022-10-17T13:22:23.310Z,12.15
2022-10-17T13:24:52.133Z,12.23
2022-10-17T13:27:21.758Z,13.75
2022-10-17T13:29:48.635Z,14.75
2022-10-17T13:32:15.322Z,14.77
2022-10-17T13:34:42.020Z,13.05
2022-10-17T13:37:14.557Z,14.63
2022-10-17T13:39:54.821Z,13.98
2022-10-17T13:42:22.575Z,14.98
2022-10-17T13:44:49.625Z,14.60
2022-10-17T13:47:30.614Z,13.65
2022-10-17T13:49:58.668Z,12.68
2022-10-17T13:52:28.607Z,13.60
2022-10-17T13:55:06.318Z,14.48
2022-10-17T13:57:33.553Z,13.73
2022-10-17T14:00:20.693Z,13.82
2022-10-17T14:02:48.722Z,13.38
2022-10-17T14:05:20.984Z,13.30
2022-10-17T14:10:41.367Z,13.32
2022-10-17T14:13:17.822Z,12.55
2022-10-17T14:15:46.489Z,32.65
2022-10-17T14:18:25.848Z,13.77
2022-10-17T14:23:44.345Z,13.50
2022-10-17T14:26:17.738Z,12.13
2022-10-17T14:28:47.333Z,12.48
2022-10-17T14:31:29.770Z,12.88
2022-10-17T14:33:57.199Z,13.07
2022-10-17T14:36:37.389Z,13.52
2022-10-17T14:39:10.703Z,13.85
2022-10-17T14:44:37.399Z,13.98
2022-10-17T14:47:31.150Z,12.82
2022-10-17T14:50:10.786Z,13.05
2022-10-17T14:52:39.043Z,13.55
2022-10-17T14:55:24.527Z,13.40
2022-10-17T14:57:51.715Z,14.20
2022-10-17T15:00:20.328Z,14.70
2022-10-17T15:02:48.852Z,13.23
2022-10-17T15:05:16.714Z,14.13
2022-10-17T15:07:44.758Z,14.75
2022-10-17T15:10:35.509Z,15.65
2022-10-17T15:15:52.827Z,17.08
2022-10-17T15:18:20.817Z,16.20
2022-10-17T15:20:51.977Z,14.82
2022-10-17T15:23:27.005Z,15.52
2022-10-17T15:25:53.921Z,14.95
2022-10-17T15:28:20.616Z,21.00
2022-10-17T15:30:47.397Z,16.13
2022-10-17T15:33:14.074Z,16.05
2022-10-17T15:35:42.683Z,15.18
2022-10-17T15:38:11.600Z,14.85
2022-10-17T15:40:41.341Z,15.27
2022-10-17T15:43:09.536Z,14.75
2022-10-17T15:45:36.424Z,15.93
2022-10-17T15:48:07.428Z,14.93
2022-10-17T15:50:34.123Z,15.57
2022-10-17T15:53:00.937Z,15.98
2022-10-17T15:55:27.924Z,16.08
2022-10-17T15:57:54.648Z,15.95
2022-10-17T16:02:50.128Z,15.60
2022-10-17T16:05:23.381Z,15.05
2022-10-17T16:07:50.269Z,15.73
2022-10-17T16:10:17.886Z,15.65
2022-10-17T16:12:45.060Z,17.00
2022-10-17T16:15:17.213Z,14.90
2022-10-17T16:17:44.038Z,17.00
2022-10-17T16:20:12.542Z,15.38
2022-10-17T16:22:42.100Z,16.05
2022-10-17T16:25:22.105Z,16.75
2022-10-17T16:27:51.631Z,15.30
2022-10-17T16:30:19.192Z,15.82
2022-10-17T16:32:46.181Z,15.63
2022-10-17T16:35:25.182Z,15.73
2022-10-17T16:37:51.953Z,15.43
2022-10-17T16:40:18.951Z,16.90
2022-10-17T16:42:45.728Z,154.18
2022-10-17T16:45:21.114Z,16.85
2022-10-17T16:47:49.095Z,17.55
2022-10-17T16:50:16.080Z,17.35
2022-10-17T16:52:42.959Z,17.20
2022-10-17T16:55:10.191Z,16.30
2022-10-17T16:57:37.022Z,17.95
2022-10-17T17:00:05.613Z,17.35
2022-10-17T17:02:32.600Z,17.25
2022-10-17T17:04:59.529Z,17.33
2022-10-17T17:07:29.536Z,18.10
2022-10-17T17:09:56.734Z,18.73
2022-10-17T17:12:23.596Z,16.30
2022-10-17T17:17:30.177Z,19.40
2022-10-17T17:20:04.156Z,19.52
2022-10-17T17:22:30.875Z,19.25
2022-10-17T17:24:57.574Z,20.10
2022-10-17T17:27:25.199Z,19.13
2022-10-17T17:29:51.982Z,21.50
2022-10-17T17:32:18.770Z,20.92
2022-10-17T17:34:45.535Z,20.08
2022-10-17T17:37:12.304Z,18.17
2022-10-17T17:39:39.064Z,17.63
2022-10-17T17:42:05.748Z,18.35
2022-10-17T17:44:32.509Z,18.20
2022-10-17T17:46:59.215Z,19.30
2022-10-17T17:49:25.964Z,20.25
2022-10-17T17:51:52.941Z,19.45
2022-10-17T17:54:19.662Z,21.63
2022-10-17T17:56:46.835Z,20.65
2022-10-17T17:59:13.889Z,20.48
2022-10-17T18:01:40.680Z,20.02
2022-10-17T18:04:09.322Z,20.25
2022-10-17T18:06:37.598Z,42.33
2022-10-17T18:09:05.803Z,23.20
2022-10-17T18:11:33.015Z,22.15
2022-10-17T18:14:04.132Z,27.92
2022-10-17T18:16:32.959Z,38.22
2022-10-17T18:19:05.884Z,34.60
2022-10-17T18:21:34.119Z,22.98
2022-10-17T18:24:01.378Z,24.95
2022-10-17T18:26:28.702Z,26.33
2022-10-17T18:28:55.808Z,28.92
2022-10-17T18:31:26.480Z,26.80
2022-10-17T18:33:59.081Z,24.60
2022-10-17T18:36:27.407Z,25.27
2022-10-17T18:38:55.862Z,26.42
2022-10-17T18:41:25.020Z,24.27
2022-10-17T18:43:53.952Z,21.90
2022-10-17T18:46:23.258Z,22.60
2022-10-17T18:48:50.983Z,21.50
2022-10-17T18:51:20.985Z,21.45
2022-10-17T18:53:51.127Z,23.95
2022-10-17T18:56:19.097Z,22.65
2022-10-17T18:58:46.054Z,24.98
2022-10-17T19:01:15.951Z,28.10
2022-10-17T19:03:43.846Z,27.10
2022-10-17T19:06:12.175Z,23.90
2022-10-17T19:08:39.790Z,25.88
2022-10-17T19:11:13.478Z,26.05
2022-10-17T19:13:41.371Z,25.63
2022-10-17T19:16:14.421Z,26.25
2022-10-17T19:18:41.272Z,26.02
2022-10-17T19:21:10.550Z,25.55
2022-10-17T19:23:38.294Z,28.00
2022-10-17T19:26:10.591Z,28.10
2022-10-17T19:28:39.655Z,27.50
2022-10-17T19:31:06.949Z,26.15
2022-10-17T19:33:34.527Z,27.95
2022-10-17T19:36:05.116Z,109.38
2022-10-17T19:38:32.526Z,33.88
2022-10-17T19:43:31.860Z,27.58
2022-10-17T19:46:03.529Z,24.52
2022-10-17T19:48:35.498Z,20.60
2022-10-17T19:51:02.854Z,31.83
2022-10-17T19:53:29.709Z,34.13
2022-10-17T19:55:57.665Z,34.45
2022-10-17T19:58:25.863Z,32.95
2022-10-17T20:00:55.686Z,30.02
2022-10-17T20:03:23.405Z,29.23
2022-10-17T20:05:50.867Z,28.98
2022-10-17T20:08:18.320Z,27.73
2022-10-17T20:10:46.368Z,28.60
2022-10-17T20:13:14.776Z,32.72
2022-10-17T20:15:42.073Z,30.20
2022-10-17T20:18:09.921Z,27.27
2022-10-17T20:20:37.985Z,23.80
2022-10-17T20:23:05.025Z,25.13
2022-10-17T20:25:33.427Z,21.08
2022-10-17T20:28:00.551Z,22.15
2022-10-17T20:32:55.610Z,24.50
2022-10-17T20:35:22.796Z,27.27
2022-10-17T20:37:50.215Z,30.10
2022-10-17T20:40:34.106Z,28.15
2022-10-17T20:43:01.616Z,26.48
2022-10-17T20:45:43.609Z,27.25
2022-10-17T20:48:15.883Z,27.70
2022-10-17T20:50:43.771Z,27.00
2022-10-17T20:53:35.329Z,29.42
2022-10-17T20:56:17.230Z,28.13
2022-10-17T20:58:43.972Z,25.02
2022-10-17T21:01:11.477Z,25.05
2022-10-17T21:03:43.842Z,23.75
2022-10-17T21:06:14.084Z,23.55
2022-10-17T21:08:41.268Z,22.70
2022-10-17T21:13:38.765Z,22.42
2022-10-17T21:16:10.775Z,22.55
2022-10-17T21:18:37.998Z,28.05
2022-10-17T21:23:35.655Z,24.95
2022-10-17T21:26:04.083Z,25.40
2022-10-17T21:28:31.148Z,24.25
2022-10-17T21:31:07.829Z,23.98
2022-10-17T21:33:34.655Z,29.15
2022-10-17T21:36:01.650Z,28.00
2022-10-17T21:38:28.416Z,26.33
2022-10-17T21:40:56.094Z,23.52
2022-10-17T21:43:22.909Z,24.02
2022-10-17T21:45:49.589Z,24.42
2022-10-17T21:48:16.377Z,26.33
2022-10-17T21:50:43.076Z,27.38
2022-10-17T21:53:09.819Z,26.70
2022-10-17T21:55:37.800Z,28.70
2022-10-17T21:58:04.915Z,31.88
2022-10-17T22:02:58.528Z,27.35
2022-10-17T22:05:25.248Z,26.38
2022-10-17T22:07:51.946Z,28.00
2022-10-17T22:10:18.642Z,27.00
2022-10-17T22:12:45.332Z,26.70
2022-10-17T22:15:12.084Z,25.58
2022-10-17T22:17:38.801Z,25.30
2022-10-17T22:20:05.986Z,27.13
2022-10-17T22:24:59.243Z,28.50
2022-10-17T22:27:25.972Z,29.20
2022-10-17T22:29:52.670Z,27.95
2022-10-17T22:32:22.356Z,27.30
2022-10-17T22:34:49.516Z,26.33
2022-10-17T22:37:16.209Z,28.10
2022-10-17T22:39:42.981Z,29.23
2022-10-17T22:42:09.704Z,28.70
2022-10-17T22:44:36.514Z,29.85
2022-10-17T22:47:03.266Z,30.30
2022-10-17T22:49:32.189Z,27.58
2022-10-17T22:51:59.001Z,27.15
2022-10-17T22:54:25.720Z,27.52
2022-10-17T22:56:52.406Z,26.70
2022-10-17T22:59:19.123Z,24.50
2022-10-17T23:01:45.944Z,25.77
2022-10-17T23:04:12.657Z,25.58
2022-10-17T23:06:39.355Z,24.48
2022-10-17T23:09:06.154Z,26.92
2022-10-17T23:11:32.864Z,32.42
2022-10-17T23:13:59.561Z,31.58
2022-10-17T23:16:26.247Z,27.13
2022-10-17T23:18:52.960Z,27.10
2022-10-17T23:21:19.678Z,30.05
2022-10-17T23:23:46.703Z,32.80
2022-10-17T23:26:14.639Z,41.95
2022-10-17T23:28:42.720Z,32.72
2022-10-17T23:31:22.705Z,29.70
2022-10-17T23:33:50.027Z,32.28
2022-10-17T23:38:46.165Z,33.15
2022-10-17T23:41:13.792Z,30.90
2022-10-17T23:43:40.621Z,32.90
2022-10-17T23:46:07.901Z,33.65
2022-10-17T23:48:34.931Z,32.63
2022-10-17T23:51:01.920Z,42.88
2022-10-17T23:53:28.627Z,28.85
2022-10-17T23:55:55.325Z,42.22
2022-10-17T23:58:22.104Z,53.30
